sensor_id;sensor_type;location;lat;lon;timestamp;P1;durP1;ratioP1;P2;durP2;ratioP2
10509;SDS011;5303;53.266;10.410;2022-08-21T00:01:54;4.10;;;3.13;;
10509;SDS011;5303;53.266;10.410;2022-08-21T00:04:19;6.80;;;3.27;;
10509;SDS011;5303;53.266;10.410;2022-08-21T00:06:45;6.33;;;3.40;;
10509;SDS011;5303;53.266;10.410;2022-08-21T00:09:10;4.77;;;3.13;;
10509;SDS011;5303;53.266;10.410;2022-08-21T00:11:37;6.23;;;3.33;;
10509;SDS011;5303;53.266;10.410;2022-08-21T00:14:04;5.40;;;3.30;;
10509;SDS011;5303;53.266;10.410;2022-08-21T00:16:31;6.10;;;3.27;;
10509;SDS011;5303;53.266;10.410;2022-08-21T00:18:57;4.33;;;3.00;;
10509;SDS011;5303;53.266;10.410;2022-08-21T00:21:22;4.97;;;3.00;;
10509;SDS011;5303;53.266;10.410;2022-08-21T00:23:47;5.03;;;3.20;;
10509;SDS011;5303;53.266;10.410;2022-08-21T00:29:34;6.67;;;3.30;;
10509;SDS011;5303;53.266;10.410;2022-08-21T00:32:00;5.90;;;3.30;;
10509;SDS011;5303;53.266;10.410;2022-08-21T00:34:25;6.87;;;3.23;;
10509;SDS011;5303;53.266;10.410;2022-08-21T00:36:51;4.67;;;3.00;;
10509;SDS011;5303;53.266;10.410;2022-08-21T00:39:16;6.30;;;2.87;;
10509;SDS011;5303;53.266;10.410;2022-08-21T00:41:42;4.37;;;3.00;;
10509;SDS011;5303;53.266;10.410;2022-08-21T00:44:09;5.03;;;3.20;;
10509;SDS011;5303;53.266;10.410;2022-08-21T00:46:37;5.37;;;3.07;;
10509;SDS011;5303;53.266;10.410;2022-08-21T00:49:04;5.47;;;3.03;;
10509;SDS011;5303;53.266;10.410;2022-08-21T00:51:36;4.13;;;3.17;;
10509;SDS011;5303;53.266;10.410;2022-08-21T00:54:06;4.63;;;2.70;;
10509;SDS011;5303;53.266;10.410;2022-08-21T00:56:34;3.33;;;2.90;;
10509;SDS011;5303;53.266;10.410;2022-08-21T00:59:00;3.57;;;2.73;;
10509;SDS011;5303;53.266;10.410;2022-08-21T01:01:26;5.57;;;3.30;;
10509;SDS011;5303;53.266;10.410;2022-08-21T01:03:52;5.90;;;2.73;;
10509;SDS011;5303;53.266;10.410;2022-08-21T01:06:17;4.17;;;2.77;;
10509;SDS011;5303;53.266;10.410;2022-08-21T01:08:43;3.87;;;2.50;;
10509;SDS011;5303;53.266;10.410;2022-08-21T01:11:08;3.27;;;2.60;;
10509;SDS011;5303;53.266;10.410;2022-08-21T01:13:36;3.97;;;2.53;;
10509;SDS011;5303;53.266;10.410;2022-08-21T01:16:04;2.83;;;2.23;;
10509;SDS011;5303;53.266;10.410;2022-08-21T01:18:34;5.03;;;2.57;;
10509;SDS011;5303;53.266;10.410;2022-08-21T01:21:03;3.57;;;2.30;;
10509;SDS011;5303;53.266;10.410;2022-08-21T01:23:37;5.13;;;2.60;;
10509;SDS011;5303;53.266;10.410;2022-08-21T01:26:04;3.20;;;2.57;;
10509;SDS011;5303;53.266;10.410;2022-08-21T01:28:33;3.80;;;2.70;;
10509;SDS011;5303;53.266;10.410;2022-08-21T01:31:01;4.03;;;2.70;;
10509;SDS011;5303;53.266;10.410;2022-08-21T01:33:29;3.40;;;2.70;;
10509;SDS011;5303;53.266;10.410;2022-08-21T01:35:55;5.90;;;2.37;;
10509;SDS011;5303;53.266;10.410;2022-08-21T01:38:21;4.03;;;2.33;;
10509;SDS011;5303;53.266;10.410;2022-08-21T01:40:46;4.10;;;2.53;;
10509;SDS011;5303;53.266;10.410;2022-08-21T01:43:11;4.83;;;2.40;;
10509;SDS011;5303;53.266;10.410;2022-08-21T01:45:37;6.40;;;2.77;;
10509;SDS011;5303;53.266;10.410;2022-08-21T01:48:02;4.87;;;2.50;;
10509;SDS011;5303;53.266;10.410;2022-08-21T01:50:28;3.90;;;3.07;;
10509;SDS011;5303;53.266;10.410;2022-08-21T01:52:53;3.97;;;2.60;;
10509;SDS011;5303;53.266;10.410;2022-08-21T01:55:18;3.40;;;2.37;;
10509;SDS011;5303;53.266;10.410;2022-08-21T01:57:44;3.57;;;2.67;;
10509;SDS011;5303;53.266;10.410;2022-08-21T02:00:11;5.30;;;2.67;;
10509;SDS011;5303;53.266;10.410;2022-08-21T02:02:39;4.10;;;2.70;;
10509;SDS011;5303;53.266;10.410;2022-08-21T02:05:07;4.23;;;2.60;;
10509;SDS011;5303;53.266;10.410;2022-08-21T02:07:37;3.90;;;2.87;;
10509;SDS011;5303;53.266;10.410;2022-08-21T02:10:05;4.33;;;2.57;;
10509;SDS011;5303;53.266;10.410;2022-08-21T02:12:32;5.07;;;2.70;;
10509;SDS011;5303;53.266;10.410;2022-08-21T02:14:57;3.67;;;2.63;;
10509;SDS011;5303;53.266;10.410;2022-08-21T02:17:22;3.57;;;2.30;;
10509;SDS011;5303;53.266;10.410;2022-08-21T02:19:48;4.50;;;2.70;;
10509;SDS011;5303;53.266;10.410;2022-08-21T02:22:15;6.80;;;3.07;;
10509;SDS011;5303;53.266;10.410;2022-08-21T02:24:40;3.70;;;2.80;;
10509;SDS011;5303;53.266;10.410;2022-08-21T02:27:05;4.53;;;2.67;;
10509;SDS011;5303;53.266;10.410;2022-08-21T02:29:30;3.63;;;2.20;;
10509;SDS011;5303;53.266;10.410;2022-08-21T02:31:56;3.83;;;2.43;;
10509;SDS011;5303;53.266;10.410;2022-08-21T02:34:21;4.33;;;3.00;;
10509;SDS011;5303;53.266;10.410;2022-08-21T02:36:46;3.87;;;2.50;;
10509;SDS011;5303;53.266;10.410;2022-08-21T02:39:11;3.67;;;2.93;;
10509;SDS011;5303;53.266;10.410;2022-08-21T02:41:37;3.57;;;2.60;;
10509;SDS011;5303;53.266;10.410;2022-08-21T02:44:02;3.73;;;2.60;;
10509;SDS011;5303;53.266;10.410;2022-08-21T02:46:28;3.83;;;2.37;;
10509;SDS011;5303;53.266;10.410;2022-08-21T02:48:53;3.73;;;2.40;;
10509;SDS011;5303;53.266;10.410;2022-08-21T02:51:18;3.67;;;2.60;;
10509;SDS011;5303;53.266;10.410;2022-08-21T02:53:45;3.03;;;2.40;;
10509;SDS011;5303;53.266;10.410;2022-08-21T02:56:13;4.50;;;2.80;;
10509;SDS011;5303;53.266;10.410;2022-08-21T02:58:41;4.57;;;2.60;;
10509;SDS011;5303;53.266;10.410;2022-08-21T03:01:12;3.60;;;2.83;;
10509;SDS011;5303;53.266;10.410;2022-08-21T03:03:39;5.20;;;2.80;;
10509;SDS011;5303;53.266;10.410;2022-08-21T03:06:06;4.17;;;2.90;;
10509;SDS011;5303;53.266;10.410;2022-08-21T03:08:33;4.27;;;2.70;;
10509;SDS011;5303;53.266;10.410;2022-08-21T03:10:58;5.30;;;2.63;;
10509;SDS011;5303;53.266;10.410;2022-08-21T03:13:25;5.73;;;2.67;;
10509;SDS011;5303;53.266;10.410;2022-08-21T03:15:51;3.93;;;2.70;;
10509;SDS011;5303;53.266;10.410;2022-08-21T03:18:16;4.40;;;2.77;;
10509;SDS011;5303;53.266;10.410;2022-08-21T03:20:42;4.70;;;3.03;;
10509;SDS011;5303;53.266;10.410;2022-08-21T03:23:10;3.43;;;2.70;;
10509;SDS011;5303;53.266;10.410;2022-08-21T03:25:35;5.50;;;2.80;;
10509;SDS011;5303;53.266;10.410;2022-08-21T03:28:01;4.63;;;2.73;;
10509;SDS011;5303;53.266;10.410;2022-08-21T03:30:28;4.57;;;2.93;;
10509;SDS011;5303;53.266;10.410;2022-08-21T03:32:56;4.13;;;2.63;;
10509;SDS011;5303;53.266;10.410;2022-08-21T03:35:22;4.73;;;3.20;;
10509;SDS011;5303;53.266;10.410;2022-08-21T03:37:47;4.50;;;2.87;;
10509;SDS011;5303;53.266;10.410;2022-08-21T03:40:14;5.27;;;2.33;;
10509;SDS011;5303;53.266;10.410;2022-08-21T03:42:41;5.60;;;2.60;;
10509;SDS011;5303;53.266;10.410;2022-08-21T03:45:07;3.37;;;2.70;;
10509;SDS011;5303;53.266;10.410;2022-08-21T03:47:33;3.40;;;2.67;;
10509;SDS011;5303;53.266;10.410;2022-08-21T03:49:58;3.30;;;2.63;;
10509;SDS011;5303;53.266;10.410;2022-08-21T03:52:24;3.40;;;2.50;;
10509;SDS011;5303;53.266;10.410;2022-08-21T03:54:49;5.73;;;2.90;;
10509;SDS011;5303;53.266;10.410;2022-08-21T03:57:15;3.00;;;2.63;;
10509;SDS011;5303;53.266;10.410;2022-08-21T03:59:41;2.50;;;2.30;;
10509;SDS011;5303;53.266;10.410;2022-08-21T04:02:08;3.60;;;2.50;;
10509;SDS011;5303;53.266;10.410;2022-08-21T04:04:34;3.67;;;2.87;;
10509;SDS011;5303;53.266;10.410;2022-08-21T04:07:00;4.37;;;2.57;;
10509;SDS011;5303;53.266;10.410;2022-08-21T04:09:26;4.17;;;2.60;;
10509;SDS011;5303;53.266;10.410;2022-08-21T04:11:52;4.03;;;3.27;;
10509;SDS011;5303;53.266;10.410;2022-08-21T04:14:18;3.67;;;3.00;;
10509;SDS011;5303;53.266;10.410;2022-08-21T04:16:43;4.37;;;3.00;;
10509;SDS011;5303;53.266;10.410;2022-08-21T04:19:09;5.07;;;2.67;;
10509;SDS011;5303;53.266;10.410;2022-08-21T04:21:36;3.30;;;2.60;;
10509;SDS011;5303;53.266;10.410;2022-08-21T04:24:02;5.63;;;2.80;;
10509;SDS011;5303;53.266;10.410;2022-08-21T04:26:29;3.20;;;2.57;;
10509;SDS011;5303;53.266;10.410;2022-08-21T04:28:55;5.50;;;2.70;;
10509;SDS011;5303;53.266;10.410;2022-08-21T04:31:22;3.77;;;2.77;;
10509;SDS011;5303;53.266;10.410;2022-08-21T04:33:47;4.83;;;2.90;;
10509;SDS011;5303;53.266;10.410;2022-08-21T04:39:34;6.53;;;3.13;;
10509;SDS011;5303;53.266;10.410;2022-08-21T04:42:00;3.87;;;2.80;;
10509;SDS011;5303;53.266;10.410;2022-08-21T04:44:25;4.17;;;3.23;;
10509;SDS011;5303;53.266;10.410;2022-08-21T04:46:50;5.33;;;3.27;;
10509;SDS011;5303;53.266;10.410;2022-08-21T04:49:15;3.60;;;2.87;;
10509;SDS011;5303;53.266;10.410;2022-08-21T04:51:41;3.53;;;2.80;;
10509;SDS011;5303;53.266;10.410;2022-08-21T04:54:08;7.07;;;2.73;;
10509;SDS011;5303;53.266;10.410;2022-08-21T04:56:38;5.63;;;2.80;;
10509;SDS011;5303;53.266;10.410;2022-08-21T04:59:07;4.53;;;3.10;;
10509;SDS011;5303;53.266;10.410;2022-08-21T05:01:41;3.93;;;3.10;;
10509;SDS011;5303;53.266;10.410;2022-08-21T05:04:08;6.03;;;2.83;;
10509;SDS011;5303;53.266;10.410;2022-08-21T05:06:39;3.37;;;2.70;;
10509;SDS011;5303;53.266;10.410;2022-08-21T05:09:06;3.90;;;2.50;;
10509;SDS011;5303;53.266;10.410;2022-08-21T05:11:34;5.97;;;3.07;;
10509;SDS011;5303;53.266;10.410;2022-08-21T05:14:00;3.77;;;2.70;;
10509;SDS011;5303;53.266;10.410;2022-08-21T05:16:25;6.03;;;2.90;;
10509;SDS011;5303;53.266;10.410;2022-08-21T05:18:51;4.20;;;2.50;;
10509;SDS011;5303;53.266;10.410;2022-08-21T05:21:16;3.70;;;2.83;;
10509;SDS011;5303;53.266;10.410;2022-08-21T05:23:42;3.63;;;2.40;;
10509;SDS011;5303;53.266;10.410;2022-08-21T05:26:07;3.80;;;2.53;;
10509;SDS011;5303;53.266;10.410;2022-08-21T05:28:33;4.10;;;2.70;;
10509;SDS011;5303;53.266;10.410;2022-08-21T05:30:58;3.67;;;2.60;;
10509;SDS011;5303;53.266;10.410;2022-08-21T05:33:23;4.67;;;2.73;;
10509;SDS011;5303;53.266;10.410;2022-08-21T05:39:11;3.43;;;2.73;;
10509;SDS011;5303;53.266;10.410;2022-08-21T05:41:36;3.70;;;2.60;;
10509;SDS011;5303;53.266;10.410;2022-08-21T05:44:02;4.93;;;2.70;;
10509;SDS011;5303;53.266;10.410;2022-08-21T05:46:28;4.60;;;2.57;;
10509;SDS011;5303;53.266;10.410;2022-08-21T05:48:53;3.73;;;2.30;;
10509;SDS011;5303;53.266;10.410;2022-08-21T05:51:18;4.87;;;3.20;;
10509;SDS011;5303;53.266;10.410;2022-08-21T05:53:43;4.63;;;2.50;;
10509;SDS011;5303;53.266;10.410;2022-08-21T05:56:10;3.90;;;2.53;;
10509;SDS011;5303;53.266;10.410;2022-08-21T05:58:36;4.60;;;2.77;;
10509;SDS011;5303;53.266;10.410;2022-08-21T06:01:02;4.43;;;2.83;;
10509;SDS011;5303;53.266;10.410;2022-08-21T06:03:30;3.37;;;2.60;;
10509;SDS011;5303;53.266;10.410;2022-08-21T06:05:59;5.70;;;2.63;;
10509;SDS011;5303;53.266;10.410;2022-08-21T06:08:26;4.33;;;2.90;;
10509;SDS011;5303;53.266;10.410;2022-08-21T06:10:52;3.97;;;2.60;;
10509;SDS011;5303;53.266;10.410;2022-08-21T06:13:20;2.93;;;2.40;;
10509;SDS011;5303;53.266;10.410;2022-08-21T06:15:46;3.00;;;2.47;;
10509;SDS011;5303;53.266;10.410;2022-08-21T06:18:12;4.73;;;2.70;;
10509;SDS011;5303;53.266;10.410;2022-08-21T06:20:38;4.93;;;2.50;;
10509;SDS011;5303;53.266;10.410;2022-08-21T06:23:04;6.40;;;2.93;;
10509;SDS011;5303;53.266;10.410;2022-08-21T06:25:29;3.93;;;2.50;;
10509;SDS011;5303;53.266;10.410;2022-08-21T06:28:05;4.50;;;2.80;;
10509;SDS011;5303;53.266;10.410;2022-08-21T06:30:34;6.13;;;2.73;;
10509;SDS011;5303;53.266;10.410;2022-08-21T06:33:01;3.50;;;2.60;;
10509;SDS011;5303;53.266;10.410;2022-08-21T06:35:28;3.43;;;2.60;;
10509;SDS011;5303;53.266;10.410;2022-08-21T06:37:54;4.80;;;2.50;;
10509;SDS011;5303;53.266;10.410;2022-08-21T06:40:20;4.27;;;2.53;;
10509;SDS011;5303;53.266;10.410;2022-08-21T06:42:45;5.50;;;2.60;;
10509;SDS011;5303;53.266;10.410;2022-08-21T06:45:10;4.37;;;2.50;;
10509;SDS011;5303;53.266;10.410;2022-08-21T06:47:36;3.77;;;2.30;;
10509;SDS011;5303;53.266;10.410;2022-08-21T06:50:01;3.23;;;2.30;;
10509;SDS011;5303;53.266;10.410;2022-08-21T06:52:27;3.57;;;2.40;;
10509;SDS011;5303;53.266;10.410;2022-08-21T06:54:53;3.50;;;2.53;;
10509;SDS011;5303;53.266;10.410;2022-08-21T06:57:18;3.80;;;2.63;;
10509;SDS011;5303;53.266;10.410;2022-08-21T06:59:43;3.77;;;2.23;;
10509;SDS011;5303;53.266;10.410;2022-08-21T07:02:08;3.67;;;2.00;;
10509;SDS011;5303;53.266;10.410;2022-08-21T07:04:35;5.30;;;2.73;;
10509;SDS011;5303;53.266;10.410;2022-08-21T07:07:01;5.53;;;2.50;;
10509;SDS011;5303;53.266;10.410;2022-08-21T07:09:26;5.73;;;2.40;;
10509;SDS011;5303;53.266;10.410;2022-08-21T07:11:53;3.43;;;2.00;;
10509;SDS011;5303;53.266;10.410;2022-08-21T07:14:20;3.57;;;2.10;;
10509;SDS011;5303;53.266;10.410;2022-08-21T07:16:46;3.23;;;1.70;;
10509;SDS011;5303;53.266;10.410;2022-08-21T07:19:12;3.37;;;2.10;;
10509;SDS011;5303;53.266;10.410;2022-08-21T07:21:37;3.57;;;2.30;;
10509;SDS011;5303;53.266;10.410;2022-08-21T07:24:03;3.80;;;1.90;;
10509;SDS011;5303;53.266;10.410;2022-08-21T07:26:28;4.80;;;2.10;;
10509;SDS011;5303;53.266;10.410;2022-08-21T07:28:53;5.07;;;2.30;;
10509;SDS011;5303;53.266;10.410;2022-08-21T07:31:20;3.87;;;2.10;;
10509;SDS011;5303;53.266;10.410;2022-08-21T07:33:47;2.37;;;1.80;;
10509;SDS011;5303;53.266;10.410;2022-08-21T07:39:35;3.03;;;1.70;;
10509;SDS011;5303;53.266;10.410;2022-08-21T07:42:01;4.13;;;2.03;;
10509;SDS011;5303;53.266;10.410;2022-08-21T07:44:28;3.67;;;1.90;;
10509;SDS011;5303;53.266;10.410;2022-08-21T07:46:53;4.30;;;1.87;;
10509;SDS011;5303;53.266;10.410;2022-08-21T07:49:18;3.53;;;1.90;;
10509;SDS011;5303;53.266;10.410;2022-08-21T07:51:44;4.40;;;1.70;;
10509;SDS011;5303;53.266;10.410;2022-08-21T07:54:09;6.17;;;2.23;;
10509;SDS011;5303;53.266;10.410;2022-08-21T07:56:34;3.80;;;2.20;;
10509;SDS011;5303;53.266;10.410;2022-08-21T07:59:00;3.77;;;2.07;;
10509;SDS011;5303;53.266;10.410;2022-08-21T08:01:27;3.83;;;2.27;;
10509;SDS011;5303;53.266;10.410;2022-08-21T08:03:53;5.03;;;2.03;;
10509;SDS011;5303;53.266;10.410;2022-08-21T08:06:18;2.57;;;1.77;;
10509;SDS011;5303;53.266;10.410;2022-08-21T08:08:44;3.67;;;2.00;;
10509;SDS011;5303;53.266;10.410;2022-08-21T08:11:10;3.13;;;1.80;;
10509;SDS011;5303;53.266;10.410;2022-08-21T08:13:40;3.63;;;1.97;;
10509;SDS011;5303;53.266;10.410;2022-08-21T08:16:07;3.90;;;2.10;;
10509;SDS011;5303;53.266;10.410;2022-08-21T08:18:33;3.73;;;1.90;;
10509;SDS011;5303;53.266;10.410;2022-08-21T08:20:58;3.90;;;2.33;;
10509;SDS011;5303;53.266;10.410;2022-08-21T08:23:24;5.33;;;2.30;;
10509;SDS011;5303;53.266;10.410;2022-08-21T08:25:50;4.67;;;2.30;;
10509;SDS011;5303;53.266;10.410;2022-08-21T08:28:15;5.07;;;2.50;;
10509;SDS011;5303;53.266;10.410;2022-08-21T08:30:40;4.57;;;2.70;;
10509;SDS011;5303;53.266;10.410;2022-08-21T08:33:07;5.80;;;2.50;;
10509;SDS011;5303;53.266;10.410;2022-08-21T08:35:32;5.60;;;2.70;;
10509;SDS011;5303;53.266;10.410;2022-08-21T08:37:58;3.37;;;2.40;;
10509;SDS011;5303;53.266;10.410;2022-08-21T08:40:31;3.93;;;2.53;;
10509;SDS011;5303;53.266;10.410;2022-08-21T08:43:03;5.53;;;2.80;;
10509;SDS011;5303;53.266;10.410;2022-08-21T08:45:30;4.27;;;2.87;;
10509;SDS011;5303;53.266;10.410;2022-08-21T08:48:01;3.90;;;2.47;;
10509;SDS011;5303;53.266;10.410;2022-08-21T08:52:59;3.90;;;2.30;;
10509;SDS011;5303;53.266;10.410;2022-08-21T08:55:33;4.57;;;2.20;;
10509;SDS011;5303;53.266;10.410;2022-08-21T08:58:01;3.60;;;2.30;;
10509;SDS011;5303;53.266;10.410;2022-08-21T09:00:28;6.40;;;2.47;;
10509;SDS011;5303;53.266;10.410;2022-08-21T09:02:55;4.73;;;2.20;;
10509;SDS011;5303;53.266;10.410;2022-08-21T09:05:27;3.60;;;1.93;;
10509;SDS011;5303;53.266;10.410;2022-08-21T09:08:24;3.73;;;2.30;;
10509;SDS011;5303;53.266;10.410;2022-08-21T09:13:57;5.23;;;1.90;;
10509;SDS011;5303;53.266;10.410;2022-08-21T09:20:14;4.13;;;2.20;;
10509;SDS011;5303;53.266;10.410;2022-08-21T09:27:47;5.55;;;2.40;;
10509;SDS011;5303;53.266;10.410;2022-08-21T09:30:13;2.67;;;2.03;;
10509;SDS011;5303;53.266;10.410;2022-08-21T09:32:38;5.03;;;2.13;;
10509;SDS011;5303;53.266;10.410;2022-08-21T09:35:12;4.22;;;2.05;;
10509;SDS011;5303;53.266;10.410;2022-08-21T09:40:54;3.40;;;2.00;;
10509;SDS011;5303;53.266;10.410;2022-08-21T09:43:23;5.28;;;2.30;;
10509;SDS011;5303;53.266;10.410;2022-08-21T09:46:01;4.07;;;2.00;;
10509;SDS011;5303;53.266;10.410;2022-08-21T09:48:38;5.88;;;2.20;;
10509;SDS011;5303;53.266;10.410;2022-08-21T09:51:13;3.97;;;2.22;;
10509;SDS011;5303;53.266;10.410;2022-08-21T09:53:43;4.93;;;2.15;;
10509;SDS011;5303;53.266;10.410;2022-08-21T09:59:36;4.70;;;2.50;;
10509;SDS011;5303;53.266;10.410;2022-08-21T10:02:20;5.93;;;2.85;;
10509;SDS011;5303;53.266;10.410;2022-08-21T10:04:50;5.00;;;2.40;;
10509;SDS011;5303;53.266;10.410;2022-08-21T10:07:23;4.82;;;2.50;;
10509;SDS011;5303;53.266;10.410;2022-08-21T10:10:25;7.05;;;2.60;;
10509;SDS011;5303;53.266;10.410;2022-08-21T10:15:32;2.88;;;2.30;;
10509;SDS011;5303;53.266;10.410;2022-08-21T10:23:51;7.90;;;2.50;;
10509;SDS011;5303;53.266;10.410;2022-08-21T10:26:39;6.88;;;3.15;;
10509;SDS011;5303;53.266;10.410;2022-08-21T10:32:05;5.95;;;2.70;;
10509;SDS011;5303;53.266;10.410;2022-08-21T10:34:55;5.45;;;2.70;;
10509;SDS011;5303;53.266;10.410;2022-08-21T10:46:13;7.32;;;2.60;;
10509;SDS011;5303;53.266;10.410;2022-08-21T10:49:22;6.72;;;2.58;;
10509;SDS011;5303;53.266;10.410;2022-08-21T10:51:33;5.68;;;2.20;;
10509;SDS011;5303;53.266;10.410;2022-08-21T10:56:55;6.40;;;2.58;;
10509;SDS011;5303;53.266;10.410;2022-08-21T10:59:28;5.70;;;2.92;;
10509;SDS011;5303;53.266;10.410;2022-08-21T11:02:00;5.35;;;2.60;;
10509;SDS011;5303;53.266;10.410;2022-08-21T11:05:01;5.28;;;2.45;;
10509;SDS011;5303;53.266;10.410;2022-08-21T11:07:36;4.57;;;2.28;;
10509;SDS011;5303;53.266;10.410;2022-08-21T11:10:16;6.70;;;3.13;;
10509;SDS011;5303;53.266;10.410;2022-08-21T11:12:54;6.13;;;2.70;;
10509;SDS011;5303;53.266;10.410;2022-08-21T11:21:13;4.90;;;2.80;;
10509;SDS011;5303;53.266;10.410;2022-08-21T11:24:03;4.00;;;2.50;;
10509;SDS011;5303;53.266;10.410;2022-08-21T11:27:04;6.72;;;2.70;;
10509;SDS011;5303;53.266;10.410;2022-08-21T11:29:37;5.97;;;2.72;;
10509;SDS011;5303;53.266;10.410;2022-08-21T11:32:21;5.47;;;2.45;;
10509;SDS011;5303;53.266;10.410;2022-08-21T11:37:45;6.82;;;2.40;;
10509;SDS011;5303;53.266;10.410;2022-08-21T11:52:02;4.65;;;2.05;;
10509;SDS011;5303;53.266;10.410;2022-08-21T11:57:15;4.65;;;2.15;;
10509;SDS011;5303;53.266;10.410;2022-08-21T11:59:48;3.88;;;2.03;;
10509;SDS011;5303;53.266;10.410;2022-08-21T12:02:34;5.25;;;2.38;;
10509;SDS011;5303;53.266;10.410;2022-08-21T12:05:05;5.88;;;2.40;;
10509;SDS011;5303;53.266;10.410;2022-08-21T12:07:37;3.17;;;2.00;;
10509;SDS011;5303;53.266;10.410;2022-08-21T12:10:07;2.97;;;1.90;;
10509;SDS011;5303;53.266;10.410;2022-08-21T12:12:39;3.28;;;1.80;;
10509;SDS011;5303;53.266;10.410;2022-08-21T12:22:51;4.20;;;2.13;;
10509;SDS011;5303;53.266;10.410;2022-08-21T12:25:18;5.20;;;2.13;;
10509;SDS011;5303;53.266;10.410;2022-08-21T12:27:52;3.13;;;2.40;;
10509;SDS011;5303;53.266;10.410;2022-08-21T12:32:56;3.90;;;1.90;;
10509;SDS011;5303;53.266;10.410;2022-08-21T12:35:25;3.97;;;2.00;;
10509;SDS011;5303;53.266;10.410;2022-08-21T12:37:59;3.10;;;1.80;;
10509;SDS011;5303;53.266;10.410;2022-08-21T12:40:39;4.38;;;2.38;;
10509;SDS011;5303;53.266;10.410;2022-08-21T12:43:11;3.60;;;2.22;;
10509;SDS011;5303;53.266;10.410;2022-08-21T12:45:40;2.00;;;1.80;;
10509;SDS011;5303;53.266;10.410;2022-08-21T12:50:50;5.75;;;2.00;;
10509;SDS011;5303;53.266;10.410;2022-08-21T12:53:35;2.88;;;1.90;;
10509;SDS011;5303;53.266;10.410;2022-08-21T12:56:11;4.10;;;1.85;;
10509;SDS011;5303;53.266;10.410;2022-08-21T12:58:45;4.88;;;2.10;;
10509;SDS011;5303;53.266;10.410;2022-08-21T13:01:29;2.70;;;2.10;;
10509;SDS011;5303;53.266;10.410;2022-08-21T13:04:00;3.33;;;1.90;;
10509;SDS011;5303;53.266;10.410;2022-08-21T13:06:38;3.60;;;1.90;;
10509;SDS011;5303;53.266;10.410;2022-08-21T13:09:07;4.28;;;1.88;;
10509;SDS011;5303;53.266;10.410;2022-08-21T13:11:35;2.85;;;1.83;;
10509;SDS011;5303;53.266;10.410;2022-08-21T13:14:02;1.95;;;1.60;;
10509;SDS011;5303;53.266;10.410;2022-08-21T13:16:29;2.83;;;1.63;;
10509;SDS011;5303;53.266;10.410;2022-08-21T13:18:58;3.47;;;1.77;;
10509;SDS011;5303;53.266;10.410;2022-08-21T13:21:31;3.55;;;1.90;;
10509;SDS011;5303;53.266;10.410;2022-08-21T13:26:45;3.00;;;1.75;;
10509;SDS011;5303;53.266;10.410;2022-08-21T13:29:12;2.35;;;1.60;;
10509;SDS011;5303;53.266;10.410;2022-08-21T13:31:40;3.38;;;1.70;;
10509;SDS011;5303;53.266;10.410;2022-08-21T13:34:08;3.67;;;1.80;;
10509;SDS011;5303;53.266;10.410;2022-08-21T13:36:36;3.22;;;1.90;;
10509;SDS011;5303;53.266;10.410;2022-08-21T13:39:05;3.28;;;1.90;;
10509;SDS011;5303;53.266;10.410;2022-08-21T13:41:34;3.38;;;1.75;;
10509;SDS011;5303;53.266;10.410;2022-08-21T13:44:03;2.67;;;1.80;;
10509;SDS011;5303;53.266;10.410;2022-08-21T13:46:32;3.10;;;1.60;;
10509;SDS011;5303;53.266;10.410;2022-08-21T13:49:00;4.05;;;1.73;;
10509;SDS011;5303;53.266;10.410;2022-08-21T13:51:27;3.75;;;1.60;;
10509;SDS011;5303;53.266;10.410;2022-08-21T13:53:53;3.33;;;1.52;;
10509;SDS011;5303;53.266;10.410;2022-08-21T13:56:28;2.55;;;1.75;;
10509;SDS011;5303;53.266;10.410;2022-08-21T13:58:55;2.75;;;1.50;;
10509;SDS011;5303;53.266;10.410;2022-08-21T14:01:32;3.55;;;1.90;;
10509;SDS011;5303;53.266;10.410;2022-08-21T14:04:02;3.63;;;1.90;;
10509;SDS011;5303;53.266;10.410;2022-08-21T14:06:35;4.22;;;2.05;;
10509;SDS011;5303;53.266;10.410;2022-08-21T14:09:08;3.22;;;1.60;;
10509;SDS011;5303;53.266;10.410;2022-08-21T14:11:35;4.15;;;1.85;;
10509;SDS011;5303;53.266;10.410;2022-08-21T14:14:03;2.95;;;1.70;;
10509;SDS011;5303;53.266;10.410;2022-08-21T14:16:44;3.45;;;1.73;;
10509;SDS011;5303;53.266;10.410;2022-08-21T14:19:22;1.92;;;1.50;;
10509;SDS011;5303;53.266;10.410;2022-08-21T14:21:49;3.85;;;1.52;;
10509;SDS011;5303;53.266;10.410;2022-08-21T14:27:04;4.53;;;1.80;;
10509;SDS011;5303;53.266;10.410;2022-08-21T14:29:33;4.18;;;1.80;;
10509;SDS011;5303;53.266;10.410;2022-08-21T14:32:08;3.15;;;1.67;;
10509;SDS011;5303;53.266;10.410;2022-08-21T14:34:35;3.53;;;1.80;;
10509;SDS011;5303;53.266;10.410;2022-08-21T14:37:00;3.08;;;2.00;;
10509;SDS011;5303;53.266;10.410;2022-08-21T14:39:26;4.03;;;2.00;;
10509;SDS011;5303;53.266;10.410;2022-08-21T14:41:51;2.53;;;1.70;;
10509;SDS011;5303;53.266;10.410;2022-08-21T14:44:17;4.25;;;2.08;;
10509;SDS011;5303;53.266;10.410;2022-08-21T14:46:44;4.25;;;1.80;;
10509;SDS011;5303;53.266;10.410;2022-08-21T14:49:10;5.70;;;1.90;;
10509;SDS011;5303;53.266;10.410;2022-08-21T14:51:36;4.40;;;1.90;;
10509;SDS011;5303;53.266;10.410;2022-08-21T14:54:01;3.95;;;1.95;;
10509;SDS011;5303;53.266;10.410;2022-08-21T14:56:27;2.95;;;1.95;;
10509;SDS011;5303;53.266;10.410;2022-08-21T14:58:52;3.65;;;2.10;;
10509;SDS011;5303;53.266;10.410;2022-08-21T15:01:19;3.70;;;1.83;;
10509;SDS011;5303;53.266;10.410;2022-08-21T15:03:46;2.28;;;1.65;;
10509;SDS011;5303;53.266;10.410;2022-08-21T15:06:13;4.00;;;2.17;;
10509;SDS011;5303;53.266;10.410;2022-08-21T15:08:40;6.45;;;2.70;;
10509;SDS011;5303;53.266;10.410;2022-08-21T15:11:06;5.50;;;1.90;;
10509;SDS011;5303;53.266;10.410;2022-08-21T15:13:36;4.10;;;2.20;;
10509;SDS011;5303;53.266;10.410;2022-08-21T15:16:02;3.40;;;2.22;;
10509;SDS011;5303;53.266;10.410;2022-08-21T15:18:28;4.28;;;2.30;;
10509;SDS011;5303;53.266;10.410;2022-08-21T15:20:54;4.35;;;1.98;;
10509;SDS011;5303;53.266;10.410;2022-08-21T15:23:20;4.07;;;2.03;;
10509;SDS011;5303;53.266;10.410;2022-08-21T15:29:07;3.08;;;1.85;;
10509;SDS011;5303;53.266;10.410;2022-08-21T15:31:33;4.38;;;1.95;;
10509;SDS011;5303;53.266;10.410;2022-08-21T15:33:59;2.92;;;1.90;;
10509;SDS011;5303;53.266;10.410;2022-08-21T15:36:25;3.25;;;1.90;;
10509;SDS011;5303;53.266;10.410;2022-08-21T15:38:50;2.55;;;1.92;;
10509;SDS011;5303;53.266;10.410;2022-08-21T15:41:16;3.17;;;1.90;;
10509;SDS011;5303;53.266;10.410;2022-08-21T15:43:47;4.00;;;2.08;;
10509;SDS011;5303;53.266;10.410;2022-08-21T15:46:15;3.45;;;2.05;;
10509;SDS011;5303;53.266;10.410;2022-08-21T15:48:43;6.13;;;1.73;;
10509;SDS011;5303;53.266;10.410;2022-08-21T15:51:12;3.13;;;1.80;;
10509;SDS011;5303;53.266;10.410;2022-08-21T15:53:38;3.13;;;2.13;;
10509;SDS011;5303;53.266;10.410;2022-08-21T15:56:26;3.13;;;1.77;;
10509;SDS011;5303;53.266;10.410;2022-08-21T15:59:13;3.00;;;1.67;;
10509;SDS011;5303;53.266;10.410;2022-08-21T16:01:42;4.47;;;1.90;;
10509;SDS011;5303;53.266;10.410;2022-08-21T16:04:07;4.43;;;1.95;;
10509;SDS011;5303;53.266;10.410;2022-08-21T16:06:33;3.65;;;1.63;;
10509;SDS011;5303;53.266;10.410;2022-08-21T16:08:59;3.85;;;1.90;;
10509;SDS011;5303;53.266;10.410;2022-08-21T16:11:25;3.30;;;1.75;;
10509;SDS011;5303;53.266;10.410;2022-08-21T16:13:51;5.40;;;2.00;;
10509;SDS011;5303;53.266;10.410;2022-08-21T16:16:20;2.78;;;1.80;;
10509;SDS011;5303;53.266;10.410;2022-08-21T16:18:48;5.40;;;1.90;;
10509;SDS011;5303;53.266;10.410;2022-08-21T16:21:15;3.53;;;1.80;;
10509;SDS011;5303;53.266;10.410;2022-08-21T16:23:42;2.40;;;1.83;;
10509;SDS011;5303;53.266;10.410;2022-08-21T16:26:08;3.40;;;1.83;;
10509;SDS011;5303;53.266;10.410;2022-08-21T16:28:36;4.25;;;2.40;;
10509;SDS011;5303;53.266;10.410;2022-08-21T16:31:04;2.45;;;1.70;;
10509;SDS011;5303;53.266;10.410;2022-08-21T16:33:33;3.88;;;1.70;;
10509;SDS011;5303;53.266;10.410;2022-08-21T16:36:02;2.17;;;1.63;;
10509;SDS011;5303;53.266;10.410;2022-08-21T16:38:28;2.08;;;1.40;;